createdAt,value
2022-10-17T00:00:48.389Z,13.30
2022-10-17T00:04:15.666Z,12.00
2022-10-17T00:07:42.473Z,13.90
2022-10-17T00:11:14.002Z,14.10
2022-10-17T00:14:41.227Z,13.70
2022-10-17T00:18:07.971Z,12.10
2022-10-17T00:21:35.140Z,12.20
2022-10-17T00:25:02.280Z,13.10
2022-10-17T00:28:29.365Z,13.20
2022-10-17T00:31:59.110Z,13.00
2022-10-17T00:35:27.096Z,12.70
2022-10-17T00:38:57.669Z,13.70
2022-10-17T00:42:26.103Z,12.90
2022-10-17T00:45:52.751Z,11.80
2022-10-17T00:49:20.638Z,12.30
2022-10-17T00:52:48.593Z,11.40
2022-10-17T00:56:17.087Z,11.80
2022-10-17T00:59:48.949Z,12.50
2022-10-17T01:03:16.759Z,11.70
2022-10-17T01:06:44.037Z,11.40
2022-10-17T01:10:12.521Z,11.30
2022-10-17T01:13:48.875Z,11.20
2022-10-17T01:17:27.047Z,10.70
2022-10-17T01:21:51.662Z,11.00
2022-10-17T01:25:30.924Z,12.00
2022-10-17T01:29:27.542Z,11.60
2022-10-17T01:33:00.269Z,11.80
2022-10-17T01:36:39.479Z,11.80
2022-10-17T01:40:13.525Z,11.60
2022-10-17T01:43:49.370Z,11.40
2022-10-17T01:47:21.502Z,10.90
2022-10-17T01:50:54.104Z,10.50
2022-10-17T01:54:26.607Z,11.80
2022-10-17T01:57:57.310Z,12.40
2022-10-17T02:01:26.148Z,10.60
2022-10-17T02:04:57.000Z,11.00
2022-10-17T02:08:44.608Z,11.00
2022-10-17T02:12:40.445Z,11.60
2022-10-17T02:16:22.828Z,11.40
2022-10-17T02:19:59.298Z,10.70
2022-10-17T02:23:41.879Z,10.50
2022-10-17T02:27:17.702Z,10.80
2022-10-17T02:30:52.745Z,10.70
2022-10-17T02:34:26.134Z,12.00
2022-10-17T02:37:55.336Z,11.80
2022-10-17T02:41:26.137Z,12.30
2022-10-17T02:44:54.826Z,11.80
2022-10-17T02:48:28.751Z,11.30
2022-10-17T02:52:03.962Z,11.40
2022-10-17T02:55:35.634Z,11.00
2022-10-17T02:59:06.806Z,10.90
2022-10-17T03:02:42.815Z,9.70
2022-10-17T03:06:11.360Z,10.90
2022-10-17T03:09:39.682Z,10.50
2022-10-17T03:13:06.487Z,11.00
2022-10-17T03:16:35.481Z,11.20
2022-10-17T03:20:04.575Z,11.60
2022-10-17T03:23:32.193Z,10.80
2022-10-17T03:27:03.301Z,10.80
2022-10-17T03:30:30.712Z,10.50
2022-10-17T03:33:58.592Z,12.00
2022-10-17T03:37:25.442Z,12.50
2022-10-17T03:40:59.303Z,13.10
2022-10-17T03:44:26.767Z,12.70
2022-10-17T03:47:53.726Z,12.80
2022-10-17T03:51:21.146Z,11.70
2022-10-17T03:54:53.256Z,11.20
2022-10-17T03:58:20.259Z,10.70
2022-10-17T04:01:47.358Z,10.90
2022-10-17T04:05:14.716Z,13.50
2022-10-17T04:08:43.015Z,12.80
2022-10-17T04:12:17.269Z,12.10
2022-10-17T04:15:44.544Z,12.40
2022-10-17T04:19:15.132Z,11.80
2022-10-17T04:22:44.937Z,11.10
2022-10-17T04:26:12.695Z,13.90
2022-10-17T04:29:39.480Z,12.70
2022-10-17T04:33:12.387Z,12.80
2022-10-17T04:36:40.175Z,12.90
2022-10-17T04:40:10.135Z,12.70
2022-10-17T04:43:39.291Z,12.80
2022-10-17T04:47:09.638Z,13.40
2022-10-17T04:50:38.576Z,13.40
2022-10-17T04:54:29.683Z,11.90
2022-10-17T04:58:05.536Z,11.50
2022-10-17T05:01:32.589Z,11.00
2022-10-17T05:05:00.168Z,11.40
2022-10-17T05:08:27.054Z,12.40
2022-10-17T05:11:53.546Z,12.20
2022-10-17T05:15:19.908Z,12.30
2022-10-17T05:18:53.577Z,13.50
2022-10-17T05:22:20.660Z,13.60
2022-10-17T05:25:47.198Z,13.20
2022-10-17T05:29:13.988Z,14.20
2022-10-17T05:32:45.027Z,14.30
2022-10-17T05:36:12.089Z,14.60
2022-10-17T05:39:41.452Z,13.90
2022-10-17T05:43:09.657Z,13.60
2022-10-17T05:46:36.631Z,14.80
2022-10-17T05:50:04.523Z,15.60
2022-10-17T05:53:42.898Z,14.10
2022-10-17T05:57:15.024Z,15.80
2022-10-17T06:04:19.128Z,15.70
2022-10-17T06:07:46.041Z,12.80
2022-10-17T06:11:14.707Z,13.80
2022-10-17T06:14:41.096Z,14.50
2022-10-17T06:18:07.755Z,16.10
2022-10-17T06:21:36.918Z,18.10
2022-10-17T06:25:12.615Z,16.60
2022-10-17T06:28:39.784Z,15.80
2022-10-17T06:32:09.850Z,16.30
2022-10-17T06:35:40.540Z,17.20
2022-10-17T06:39:07.452Z,17.60
2022-10-17T06:42:40.348Z,16.60
2022-10-17T06:49:51.295Z,16.60
2022-10-17T06:53:42.536Z,15.10
2022-10-17T06:57:30.195Z,16.40
2022-10-17T07:01:17.875Z,19.00
2022-10-17T07:04:48.138Z,17.20
2022-10-17T07:08:17.370Z,14.40
2022-10-17T07:11:48.181Z,14.60
2022-10-17T07:15:20.867Z,13.90
2022-10-17T07:18:53.330Z,13.60
2022-10-17T07:22:24.034Z,14.00
2022-10-17T07:26:00.647Z,14.30
2022-10-17T07:29:33.026Z,13.40
2022-10-17T07:33:08.999Z,13.90
2022-10-17T07:36:38.394Z,15.30
2022-10-17T07:40:11.292Z,15.80
2022-10-17T07:43:43.588Z,14.40
2022-10-17T07:47:10.394Z,13.50
2022-10-17T07:50:38.404Z,15.10
2022-10-17T07:54:06.269Z,13.60
2022-10-17T07:57:32.979Z,13.90
2022-10-17T08:01:04.085Z,14.70
2022-10-17T08:04:31.161Z,16.20
2022-10-17T08:07:58.016Z,18.50
2022-10-17T08:11:25.644Z,18.30
2022-10-17T08:14:52.414Z,20.80
2022-10-17T08:18:22.607Z,18.90
2022-10-17T08:21:50.583Z,19.60
2022-10-17T08:25:18.844Z,17.60
2022-10-17T08:28:48.538Z,17.30
2022-10-17T08:32:15.935Z,17.20
2022-10-17T08:35:42.365Z,18.30
2022-10-17T08:39:09.337Z,19.20
2022-10-17T08:42:52.869Z,18.90
2022-10-17T08:46:22.096Z,19.60
2022-10-17T08:49:53.826Z,19.10
2022-10-17T08:53:24.890Z,18.30
2022-10-17T08:56:54.841Z,18.30
2022-10-17T09:00:23.509Z,19.10
2022-10-17T09:04:03.308Z,20.40
2022-10-17T09:07:37.434Z,20.80
2022-10-17T09:11:12.200Z,21.50
2022-10-17T09:14:56.270Z,22.80
2022-10-17T09:18:28.933Z,21.20
2022-10-17T09:21:59.849Z,21.10
2022-10-17T09:25:27.722Z,20.70
2022-10-17T09:29:01.736Z,21.60
2022-10-17T09:32:30.997Z,20.50
2022-10-17T09:36:07.994Z,20.30
2022-10-17T09:39:35.646Z,19.40
2022-10-17T09:43:07.436Z,20.10
2022-10-17T09:46:38.561Z,20.50
2022-10-17T09:50:10.588Z,20.40
2022-10-17T09:53:43.257Z,21.50
2022-10-17T09:57:12.411Z,20.50
2022-10-17T10:00:42.412Z,21.70
2022-10-17T10:04:14.521Z,22.80
2022-10-17T10:07:41.977Z,23.60
2022-10-17T10:11:14.157Z,19.60
2022-10-17T10:14:45.172Z,20.90
2022-10-17T10:18:37.342Z,20.20
2022-10-17T10:22:07.859Z,20.30
2022-10-17T10:25:36.482Z,20.00
2022-10-17T10:29:07.052Z,20.60
2022-10-17T10:32:37.188Z,21.30
2022-10-17T10:36:07.990Z,20.90
2022-10-17T10:39:40.335Z,22.00
2022-10-17T10:43:23.505Z,22.20
2022-10-17T10:46:50.043Z,22.70
2022-10-17T10:50:29.353Z,24.60
2022-10-17T10:54:03.162Z,22.70
2022-10-17T10:57:34.977Z,22.70
2022-10-17T11:01:13.758Z,20.30
2022-10-17T11:04:47.361Z,18.50
2022-10-17T11:08:22.249Z,18.80
2022-10-17T11:11:55.144Z,17.50
2022-10-17T11:15:26.703Z,17.90
2022-10-17T11:18:58.214Z,17.50
2022-10-17T11:22:36.558Z,17.10
2022-10-17T11:26:08.803Z,16.40
2022-10-17T11:29:38.523Z,16.90
2022-10-17T11:33:07.529Z,17.60
2022-10-17T11:36:38.218Z,17.60
2022-10-17T11:40:14.486Z,16.00
2022-10-17T11:43:47.645Z,14.80
2022-10-17T11:47:24.480Z,14.60
2022-10-17T11:54:48.935Z,13.50
2022-10-17T11:58:30.108Z,15.20
2022-10-17T12:02:03.276Z,14.50
2022-10-17T12:05:41.179Z,14.40
2022-10-17T12:09:17.502Z,13.60
2022-10-17T12:12:44.153Z,15.10
2022-10-17T12:20:33.402Z,14.60
2022-10-17T12:24:00.205Z,14.60
2022-10-17T12:27:40.255Z,13.90
2022-10-17T12:31:12.788Z,14.90
2022-10-17T12:34:40.277Z,15.60
2022-10-17T12:38:29.772Z,16.80
2022-10-17T12:41:59.296Z,17.20
2022-10-17T12:45:51.807Z,16.40
2022-10-17T12:49:40.737Z,17.80
2022-10-17T12:53:18.537Z,17.30
2022-10-17T12:56:48.829Z,17.20
2022-10-17T13:00:22.373Z,17.50
2022-10-17T13:07:21.484Z,18.10
2022-10-17T13:10:52.849Z,17.70
2022-10-17T13:14:25.822Z,18.00
2022-10-17T13:18:03.457Z,18.00
2022-10-17T13:21:32.654Z,16.80
2022-10-17T13:25:10.868Z,18.40
2022-10-17T13:28:39.483Z,18.30
2022-10-17T13:32:08.321Z,18.10
2022-10-17T13:39:52.383Z,16.50
2022-10-17T13:43:21.355Z,16.20
2022-10-17T13:46:49.941Z,16.80
2022-10-17T13:50:43.760Z,17.00
2022-10-17T13:54:35.708Z,15.40
2022-10-17T13:58:18.118Z,15.50
2022-10-17T14:01:48.400Z,16.00
2022-10-17T14:05:19.203Z,14.70
2022-10-17T14:09:01.153Z,16.20
2022-10-17T14:12:28.794Z,14.70
2022-10-17T14:15:58.133Z,15.00
2022-10-17T14:19:29.078Z,17.00
2022-10-17T14:23:17.906Z,18.00
2022-10-17T14:26:52.152Z,16.40
2022-10-17T14:30:57.062Z,17.80
2022-10-17T14:34:31.524Z,17.90
2022-10-17T14:38:03.585Z,19.20
2022-10-17T14:41:43.025Z,21.00
2022-10-17T14:45:18.171Z,18.10
2022-10-17T14:48:54.529Z,19.00
2022-10-17T14:52:34.020Z,19.80
2022-10-17T14:56:02.373Z,18.90
2022-10-17T14:59:52.664Z,18.80
2022-10-17T15:03:19.521Z,18.90
2022-10-17T15:06:46.562Z,18.50
2022-10-17T15:10:33.824Z,17.80
2022-10-17T15:14:00.125Z,17.50
2022-10-17T15:17:28.896Z,18.50
2022-10-17T15:21:05.010Z,18.00
2022-10-17T15:24:33.494Z,17.80
2022-10-17T15:28:02.472Z,17.00
2022-10-17T15:31:31.466Z,17.60
2022-10-17T15:34:58.469Z,20.10
2022-10-17T15:38:26.635Z,19.40
2022-10-17T15:41:53.161Z,18.80
2022-10-17T15:45:22.782Z,17.70
2022-10-17T15:48:51.480Z,18.20
2022-10-17T15:52:18.093Z,19.50
2022-10-17T15:55:46.299Z,19.10
2022-10-17T15:59:18.209Z,18.70
2022-10-17T16:02:45.236Z,19.30
2022-10-17T16:06:14.373Z,20.00
2022-10-17T16:09:42.408Z,22.00
2022-10-17T16:13:17.595Z,23.30
2022-10-17T16:16:44.878Z,29.20
2022-10-17T16:20:17.002Z,32.30
2022-10-17T16:23:44.448Z,33.20
2022-10-17T16:27:14.233Z,28.70
2022-10-17T16:30:47.620Z,36.30
2022-10-17T16:34:18.417Z,30.10
2022-10-17T16:37:49.181Z,25.80
2022-10-17T16:41:25.600Z,25.90
2022-10-17T16:44:54.563Z,24.50
2022-10-17T16:48:30.566Z,23.00
2022-10-17T16:52:03.642Z,23.20
2022-10-17T16:55:39.997Z,26.10
2022-10-17T16:59:12.625Z,23.40
2022-10-17T17:02:45.576Z,21.80
2022-10-17T17:06:17.074Z,22.60
2022-10-17T17:09:46.118Z,25.30
2022-10-17T17:13:24.095Z,23.20
2022-10-17T17:17:00.425Z,23.40
2022-10-17T17:20:32.864Z,23.70
2022-10-17T17:24:14.897Z,23.40
2022-10-17T17:27:53.009Z,23.00
2022-10-17T17:31:36.466Z,24.00
2022-10-17T17:35:05.906Z,23.80
2022-10-17T17:38:34.476Z,23.60
2022-10-17T17:42:01.610Z,23.30
2022-10-17T17:45:30.359Z,24.20
2022-10-17T17:48:58.168Z,25.30
2022-10-17T17:52:25.351Z,25.40
2022-10-17T17:56:02.932Z,24.60
2022-10-17T17:59:33.984Z,24.10
2022-10-17T18:03:04.310Z,23.70
2022-10-17T18:06:35.376Z,23.60
2022-10-17T18:10:05.152Z,22.90
2022-10-17T18:13:37.263Z,22.70
2022-10-17T18:17:04.051Z,23.50
2022-10-17T18:20:37.044Z,25.50
2022-10-17T18:24:05.749Z,24.30
2022-10-17T18:27:32.562Z,22.90
2022-10-17T18:31:05.279Z,23.10
2022-10-17T18:34:32.474Z,22.80
2022-10-17T18:38:01.023Z,23.20
2022-10-17T18:41:29.480Z,23.30
2022-10-17T18:44:56.405Z,23.20
2022-10-17T18:48:24.483Z,23.80
2022-10-17T18:51:51.336Z,23.90
2022-10-17T18:55:22.616Z,25.40
2022-10-17T18:58:49.978Z,24.70
2022-10-17T19:02:17.036Z,24.50
2022-10-17T19:05:45.520Z,23.90
2022-10-17T19:09:15.313Z,23.70
2022-10-17T19:12:45.549Z,23.80
2022-10-17T19:16:19.602Z,23.30
2022-10-17T19:19:51.043Z,23.50
2022-10-17T19:23:18.488Z,23.90
2022-10-17T19:26:47.190Z,22.40
2022-10-17T19:30:17.128Z,22.70
2022-10-17T19:33:49.699Z,22.40
2022-10-17T19:37:18.562Z,22.30
2022-10-17T19:40:45.645Z,23.60
2022-10-17T19:44:14.262Z,23.30
2022-10-17T19:47:41.083Z,22.20
2022-10-17T19:51:19.099Z,23.40
2022-10-17T19:54:51.975Z,23.70
2022-10-17T19:58:23.574Z,24.10
2022-10-17T20:01:51.781Z,23.90
2022-10-17T20:05:20.192Z,22.90
2022-10-17T20:08:49.406Z,22.80
2022-10-17T20:12:16.690Z,22.40
2022-10-17T20:15:55.842Z,22.20
2022-10-17T20:19:29.311Z,22.50
2022-10-17T20:22:58.513Z,21.30
2022-10-17T20:26:39.056Z,23.10
2022-10-17T20:30:13.014Z,22.60
2022-10-17T20:33:43.633Z,23.80
2022-10-17T20:37:11.753Z,23.40
2022-10-17T20:40:42.573Z,23.40
2022-10-17T20:44:13.604Z,24.70
2022-10-17T20:47:47.176Z,23.00
2022-10-17T20:51:16.823Z,22.30
2022-10-17T20:54:44.549Z,23.50
2022-10-17T20:58:12.989Z,23.00
2022-10-17T21:01:39.620Z,25.10
2022-10-17T21:05:10.401Z,26.60
2022-10-17T21:08:37.699Z,23.90
2022-10-17T21:12:05.572Z,25.30
2022-10-17T21:15:35.662Z,27.80
2022-10-17T21:19:03.742Z,26.50
2022-10-17T21:22:34.245Z,26.30
2022-10-17T21:26:07.239Z,27.30
2022-10-17T21:29:33.746Z,24.20
2022-10-17T21:33:00.670Z,26.10
2022-10-17T21:36:29.957Z,25.40
2022-10-17T21:39:56.555Z,26.30
2022-10-17T21:43:24.733Z,23.80
2022-10-17T21:47:14.417Z,25.00
2022-10-17T21:50:48.385Z,25.10
2022-10-17T21:54:18.966Z,23.70
2022-10-17T21:57:45.776Z,25.50
2022-10-17T22:01:16.190Z,24.30
2022-10-17T22:04:54.352Z,24.20
2022-10-17T22:08:21.311Z,24.70
2022-10-17T22:11:54.469Z,26.40
2022-10-17T22:15:21.977Z,26.50
2022-10-17T22:18:51.345Z,26.90
2022-10-17T22:22:18.587Z,26.10
2022-10-17T22:25:54.620Z,26.60
2022-10-17T22:29:22.367Z,25.30
2022-10-17T22:32:48.971Z,25.70
2022-10-17T22:36:16.356Z,26.30
2022-10-17T22:39:43.738Z,24.20
2022-10-17T22:43:10.359Z,23.80
2022-10-17T22:46:37.204Z,23.60
2022-10-17T22:50:04.696Z,24.30
2022-10-17T22:53:31.858Z,25.80
2022-10-17T22:56:58.667Z,24.60
2022-10-17T23:00:25.766Z,22.80
2022-10-17T23:03:53.542Z,24.80
2022-10-17T23:07:22.813Z,25.20
2022-10-17T23:10:50.155Z,26.30
2022-10-17T23:14:17.575Z,26.20
2022-10-17T23:17:44.321Z,26.30
2022-10-17T23:21:11.951Z,26.60
2022-10-17T23:24:39.509Z,27.10
2022-10-17T23:28:09.577Z,26.60
2022-10-17T23:31:36.129Z,26.00
2022-10-17T23:35:02.828Z,27.90
2022-10-17T23:38:30.182Z,26.70
2022-10-17T23:41:56.747Z,25.90
2022-10-17T23:45:23.754Z,27.90
2022-10-17T23:48:50.379Z,26.80
2022-10-17T23:52:17.497Z,27.00
2022-10-17T23:55:44.391Z,25.10
2022-10-17T23:59:11.447Z,25.70
